Time;durP1;ratioP1;P1;durP2;ratioP2;P2;SDS_P1;SDS_P2;PMS_P1;PMS_P2;Temp;Humidity;BMP_temperature;BMP_pressure;BME280_temperature;BME280_humidity;BME280_pressure;Samples;Min_cycle;Max_cycle;Signal;HPM_P1;HPM_P2
2023/06/13 00:02:14;;;;;;;6.70;4.30;;;;;;;13.56;48.35;100651.77;110130;1270;21987;-85
2023/06/13 00:05:06;;;;;;;6.60;3.60;;;;;;;13.53;48.43;100649.32;110125;1270;22473;-83
2023/06/13 00:07:59;;;;;;;12.20;3.90;;;;;;;13.51;48.58;100648.32;110235;1268;21837;-84
2023/06/13 00:10:39;;;;;;;3.90;3.20;;;;;;;13.48;48.67;100645.86;110489;1263;21980;-83
2023/06/13 00:13:20;;;;;;;7.90;3.20;;;;;;;13.47;48.84;100644.86;110607;1263;21971;-85
2023/06/13 00:16:36;;;;;;;5.20;3.30;;;;;;;13.44;48.96;100641.30;110811;1263;21990;-81
2023/06/13 00:19:30;;;;;;;7.00;3.50;;;;;;;13.43;48.93;100641.70;110489;1263;21976;-85
2023/06/13 00:22:39;;;;;;;6.10;2.70;;;;;;;13.43;49.29;100637.17;111176;1263;21982;-82
2023/06/13 00:25:29;;;;;;;7.00;4.40;;;;;;;13.42;49.36;100640.68;111116;1263;23717;-84
2023/06/13 00:28:03;;;;;;;9.80;3.00;;;;;;;13.42;49.25;100642.09;110883;1263;21961;-82
2023/06/13 00:30:37;;;;;;;5.40;3.20;;;;;;;13.41;49.13;100645.96;110253;1266;24008;-83
2023/06/13 00:33:31;;;;;;;5.50;2.40;;;;;;;13.40;49.16;100647.07;110750;1266;23039;-81
2023/06/13 00:36:05;;;;;;;7.40;2.70;;;;;;;13.41;49.18;100650.38;110023;1271;23076;-83
2023/06/13 00:38:38;;;;;;;4.30;2.60;;;;;;;13.41;49.12;100646.88;110543;1266;23123;-83
2023/06/13 00:41:10;;;;;;;9.30;2.70;;;;;;;13.41;49.20;100648.81;110329;1267;22029;-83
2023/06/13 00:43:41;;;;;;;4.90;2.50;;;;;;;13.39;49.30;100642.41;110763;1267;21937;-82
2023/06/13 00:46:24;;;;;;;3.70;2.50;;;;;;;13.41;49.25;100633.94;110339;1268;23048;-82
2023/06/13 00:49:22;;;;;;;4.90;2.20;;;;;;;13.41;49.11;100631.11;110108;1265;22509;-84
2023/06/13 00:52:31;;;;;;;6.30;2.20;;;;;;;13.37;48.86;100633.23;109846;1273;22014;-84
2023/06/13 00:55:08;;;;;;;4.10;2.50;;;;;;;13.36;48.91;100629.79;110570;1263;22067;-82
2023/06/13 00:57:39;;;;;;;5.90;2.20;;;;;;;13.41;48.92;100629.03;110897;1260;22000;-85
2023/06/13 01:00:12;;;;;;;3.00;2.40;;;;;;;13.43;48.66;100620.89;110467;1267;23645;-79
2023/06/13 01:02:45;;;;;;;7.50;3.00;;;;;;;13.45;48.50;100615.39;110427;1267;24064;-77
2023/06/13 01:05:17;;;;;;;6.30;2.50;;;;;;;13.46;48.61;100612.17;110660;1267;22300;-81
2023/06/13 01:07:48;;;;;;;;;;;;;;;13.50;48.37;100609.24;110556;1268;21976;-82
2023/06/13 01:10:29;;;;;;;7.10;2.60;;;;;;;13.44;48.58;100607.38;110032;1268;22014;-80
2023/06/13 01:13:51;;;;;;;3.40;2.10;;;;;;;13.47;48.23;100601.50;110131;1268;24353;-82
2023/06/13 01:16:49;;;;;;;2.70;1.90;;;;;;;13.42;48.23;100589.80;110008;1273;22279;-83
2023/06/13 01:19:51;;;;;;;7.00;2.40;;;;;;;13.35;48.15;100580.02;109768;1273;22033;-82
2023/06/13 01:23:34;;;;;;;11.30;2.10;;;;;;;13.25;48.46;100573.08;109759;1273;23047;-83
2023/06/13 01:26:25;;;;;;;4.80;2.20;;;;;;;13.20;48.49;100567.02;109505;1276;23638;-79
2023/06/13 01:29:02;;;;;;;5.40;1.80;;;;;;;13.25;48.37;100572.74;109488;1276;21990;-82
2023/06/13 01:31:39;;;;;;;3.90;2.10;;;;;;;13.26;48.25;100574.10;109403;1276;23013;-81
2023/06/13 01:34:22;;;;;;;3.10;2.10;;;;;;;13.27;48.23;100580.50;109584;1273;23706;-81
2023/06/13 01:36:54;;;;;;;3.00;1.90;;;;;;;13.28;48.28;100581.89;109314;1279;21967;-82
2023/06/13 01:39:32;;;;;;;4.60;2.10;;;;;;;13.30;48.26;100578.66;109129;1279;21984;-83
2023/06/13 01:42:12;;;;;;;4.90;2.40;;;;;;;13.33;48.03;100583.08;109258;1279;22031;-86
2023/06/13 01:44:43;;;;;;;5.30;2.10;;;;;;;13.33;48.12;100579.40;109279;1278;22671;-83
2023/06/13 01:47:58;;;;;;;2.90;1.90;;;;;;;13.32;48.25;100577.53;109571;1273;24685;-84
2023/06/13 01:50:55;;;;;;;2.80;2.00;;;;;;;13.26;48.12;100575.30;109741;1273;21991;-83
2023/06/13 01:54:05;;;;;;;3.20;2.00;;;;;;;13.20;48.34;100570.16;109796;1273;22077;-82
2023/06/13 01:56:45;;;;;;;4.50;2.10;;;;;;;13.15;48.58;100562.89;109762;1271;21961;-80
2023/06/13 01:59:32;;;;;;;2.80;1.90;;;;;;;13.17;48.79;100562.08;109766;1273;22019;-80
2023/06/13 02:02:04;;;;;;;;;;;;;;;13.15;48.87;100560.42;110501;1257;21891;-80
2023/06/13 02:04:44;;;;;;;2.70;1.80;;;;;;;13.02;49.27;100561.38;111595;1256;21957;-83
2023/06/13 02:07:33;;;;;;;4.60;2.00;;;;;;;12.97;49.38;100559.84;110600;1264;21974;-81
2023/06/13 02:10:09;;;;;;;4.40;2.40;;;;;;;12.97;49.28;100560.72;110586;1264;21960;-82
2023/06/13 02:12:56;;;;;;;;;;;;;;;12.99;49.42;100559.95;110558;1265;22977;-82
2023/06/13 02:15:40;;;;;;;2.00;1.70;;;;;;;12.89;49.85;100563.36;110849;1264;21982;-84
2023/06/13 02:18:23;;;;;;;8.80;2.60;;;;;;;12.94;49.69;100564.36;110851;1264;24533;-81
2023/06/13 02:21:00;;;;;;;3.20;2.00;;;;;;;12.98;49.65;100565.75;110616;1264;21976;-82
2023/06/13 02:23:32;;;;;;;6.20;2.30;;;;;;;12.96;49.69;100556.93;110565;1265;22353;-82
2023/06/13 02:26:11;;;;;;;6.20;1.80;;;;;;;13.01;49.58;100564.39;111064;1256;22832;-84
2023/06/13 02:28:52;;;;;;;3.50;2.10;;;;;;;13.01;49.61;100565.25;111378;1256;21968;-82
2023/06/13 02:31:24;;;;;;;4.80;2.20;;;;;;;12.98;49.66;100559.28;111416;1257;22994;-84
2023/06/13 02:34:01;;;;;;;3.20;2.10;;;;;;;12.98;49.63;100560.84;110674;1264;23708;-84
2023/06/13 02:36:45;;;;;;;12.00;2.80;;;;;;;12.99;49.61;100561.00;111076;1264;22102;-82
2023/06/13 02:39:23;;;;;;;3.80;2.10;;;;;;;12.98;49.76;100561.20;110884;1264;22728;-81
2023/06/13 02:42:09;;;;;;;3.80;1.70;;;;;;;12.99;49.82;100560.63;110055;1268;23747;-82
2023/06/13 02:44:44;;;;;;;;;;;;;;;13.01;49.85;100564.90;109423;1274;21962;-79
2023/06/13 02:47:15;;;;;;;2.80;2.00;;;;;;;12.93;49.98;100566.33;109819;1274;22001;-83
2023/06/13 02:49:50;;;;;;;2.30;1.70;;;;;;;13.00;50.02;100577.88;109683;1274;23718;-82
2023/06/13 02:52:27;;;;;;;7.50;2.20;;;;;;;13.07;49.77;100589.46;109837;1269;22909;-81
2023/06/13 02:55:08;;;;;;;3.00;2.60;;;;;;;13.13;49.77;100595.98;109949;1269;21932;-81
2023/06/13 02:57:39;;;;;;;3.30;2.60;;;;;;;13.20;49.57;100599.36;109962;1270;22631;-81
2023/06/13 03:00:13;;;;;;;3.40;2.80;;;;;;;13.24;49.29;100595.88;109982;1265;24041;-82
2023/06/13 03:02:50;;;;;;;2.30;2.00;;;;;;;13.23;49.36;100591.35;110926;1258;22436;-82
2023/06/13 03:05:26;;;;;;;4.90;2.50;;;;;;;13.24;49.34;100594.10;110981;1258;23034;-81
2023/06/13 03:07:59;;;;;;;3.10;1.90;;;;;;;13.26;49.20;100594.55;110569;1265;22110;-81
2023/06/13 03:10:30;;;;;;;3.00;2.30;;;;;;;13.28;49.26;100598.13;110640;1264;23606;-80
2023/06/13 03:13:07;;;;;;;5.20;2.10;;;;;;;13.32;49.44;100596.41;110571;1265;21947;-81
2023/06/13 03:15:47;;;;;;;5.30;2.30;;;;;;;13.37;49.53;100592.86;110092;1269;22759;-81
2023/06/13 03:18:18;;;;;;;7.50;3.00;;;;;;;13.41;49.55;100592.83;109701;1273;23699;-81
2023/06/13 03:20:49;;;;;;;;;;;;;;;13.43;49.36;100592.23;109895;1272;21981;-80
2023/06/13 03:23:25;;;;;;;6.70;6.10;;;;;;;13.32;49.63;100590.81;109724;1272;22358;-81
2023/06/13 03:26:03;;;;;;;7.30;2.90;;;;;;;13.24;49.68;100590.42;109908;1255;21989;-82
2023/06/13 03:28:37;;;;;;;6.90;2.70;;;;;;;13.18;50.07;100594.75;110119;1268;22014;-81
2023/06/13 03:31:11;;;;;;;6.30;3.00;;;;;;;13.16;50.57;100592.39;109524;1274;23637;-83
2023/06/13 03:33:48;;;;;;;8.20;5.80;;;;;;;13.17;50.79;100588.66;109698;1270;23658;-80
2023/06/13 03:36:26;;;;;;;8.20;3.30;;;;;;;13.14;51.11;100576.39;109851;1270;22638;-83
2023/06/13 03:38:57;;;;;;;6.50;2.70;;;;;;;13.07;51.32;100562.55;109686;1271;23311;-80
2023/06/13 03:41:28;;;;;;;5.10;3.10;;;;;;;13.01;51.64;100554.61;109717;1271;22291;-81
2023/06/13 03:44:13;;;;;;;5.60;3.70;;;;;;;12.97;52.11;100549.73;110354;1266;22289;-81
2023/06/13 03:46:58;;;;;;;8.40;4.30;;;;;;;12.94;52.54;100545.66;110611;1266;21977;-80
2023/06/13 03:49:43;;;;;;;5.40;3.60;;;;;;;12.99;52.91;100543.69;110943;1259;21977;-84
2023/06/13 03:52:17;;;;;;;5.50;3.80;;;;;;;13.09;53.51;100546.91;110605;1264;23709;-81
2023/06/13 03:54:51;;;;;;;6.60;4.00;;;;;;;13.21;53.62;100548.65;109854;1268;23721;-83
2023/06/13 03:57:22;;;;;;;6.30;3.40;;;;;;;13.31;53.60;100559.02;109517;1273;22471;-80
2023/06/13 04:00:00;;;;;;;5.90;3.70;;;;;;;13.35;53.54;100567.43;109666;1269;22000;-82
2023/06/13 04:02:43;;;;;;;5.40;3.90;;;;;;;13.36;53.80;100575.23;109886;1273;23642;-82
2023/06/13 04:05:16;;;;;;;4.20;3.60;;;;;;;13.41;53.87;100584.27;109735;1273;22997;-83
2023/06/13 04:07:47;;;;;;;6.00;3.90;;;;;;;13.43;54.00;100582.59;109712;1273;22568;-80
2023/06/13 04:10:21;;;;;;;4.60;3.20;;;;;;;13.44;53.98;100580.31;110061;1268;21879;-83
2023/06/13 04:13:00;;;;;;;5.10;2.90;;;;;;;13.42;53.84;100574.63;110327;1264;23191;-81
2023/06/13 04:15:32;;;;;;;3.90;2.50;;;;;;;13.36;53.74;100570.51;110725;1259;23798;-79
2023/06/13 04:18:05;;;;;;;4.30;3.10;;;;;;;13.30;53.89;100564.13;111118;1259;22426;-81
2023/06/13 04:20:39;;;;;;;4.50;2.80;;;;;;;13.25;54.21;100560.34;110703;1256;21962;-80
2023/06/13 04:23:13;;;;;;;6.40;2.80;;;;;;;13.19;54.30;100559.06;110638;1265;22008;-80
2023/06/13 04:25:48;;;;;;;3.40;2.90;;;;;;;13.12;54.50;100558.63;110522;1265;21969;-78
2023/06/13 04:28:21;;;;;;;3.50;3.00;;;;;;;13.12;54.75;100561.30;110444;1265;21972;-80
2023/06/13 04:30:56;;;;;;;7.80;3.20;;;;;;;13.15;54.99;100565.14;109820;1269;22033;-81
2023/06/13 04:33:37;;;;;;;6.90;3.60;;;;;;;13.23;55.47;100571.95;109752;1270;22083;-80
2023/06/13 04:36:08;;;;;;;5.20;3.60;;;;;;;13.37;55.37;100583.07;109829;1270;23611;-78
2023/06/13 04:39:06;;;;;;;4.50;3.80;;;;;;;13.45;54.93;100590.74;109673;1267;22689;-78
2023/06/13 04:42:14;;;;;;;4.10;3.40;;;;;;;13.46;55.16;100598.75;109370;1275;24716;-80
2023/06/13 04:44:58;;;;;;;7.90;3.80;;;;;;;13.49;54.90;100600.34;109471;1271;22015;-82
2023/06/13 04:47:33;;;;;;;8.70;4.00;;;;;;;13.50;54.65;100597.70;109770;1271;21977;-79
2023/06/13 04:50:33;;;;;;;5.30;4.80;;;;;;;13.51;55.03;100594.67;109719;1271;23756;-78
2023/06/13 04:53:07;;;;;;;7.40;4.70;;;;;;;13.53;54.81;100594.09;109659;1272;23087;-80
2023/06/13 04:55:42;;;;;;;5.80;3.20;;;;;;;13.48;54.78;100589.75;109528;1271;23129;-80
2023/06/13 04:58:17;;;;;;;8.30;3.60;;;;;;;13.41;54.94;100594.24;109552;1272;22014;-81
2023/06/13 05:00:48;;;;;;;5.00;3.10;;;;;;;13.36;55.13;100592.53;109496;1272;21956;-80
2023/06/13 05:03:27;;;;;;;4.40;2.90;;;;;;;13.32;55.28;100591.49;109616;1271;22000;-77
2023/06/13 05:06:03;;;;;;;6.20;2.90;;;;;;;13.28;55.49;100586.77;109339;1272;22134;-79
2023/06/13 05:08:37;;;;;;;5.10;3.10;;;;;;;13.24;55.59;100585.35;109938;1265;22027;-78
2023/06/13 05:11:09;;;;;;;5.10;3.50;;;;;;;13.20;55.69;100580.28;110277;1266;21971;-80
2023/06/13 05:14:29;;;;;;;6.50;3.60;;;;;;;13.19;55.92;100579.67;110928;1264;21993;-81
2023/06/13 05:17:27;;;;;;;4.00;2.40;;;;;;;13.11;56.29;100582.45;110339;1267;21973;-81
2023/06/13 05:20:01;;;;;;;9.90;2.80;;;;;;;13.14;56.28;100591.23;109855;1269;23121;-83
2023/06/13 05:22:33;;;;;;;5.50;2.70;;;;;;;13.16;56.10;100592.87;110013;1269;21989;-81
2023/06/13 05:25:18;;;;;;;4.00;2.50;;;;;;;13.14;55.85;100596.48;110137;1269;21997;-82
2023/06/13 05:28:02;;;;;;;4.10;2.40;;;;;;;13.06;56.03;100603.27;109908;1269;21977;-82
2023/06/13 05:31:00;;;;;;;6.60;2.90;;;;;;;13.00;56.18;100595.34;110279;1266;21990;-79
2023/06/13 05:33:38;;;;;;;6.50;3.50;;;;;;;12.98;56.17;100603.10;110512;1266;24404;-80
2023/06/13 05:36:29;;;;;;;5.80;3.20;;;;;;;12.95;56.30;100601.69;109577;1273;23704;-81
2023/06/13 05:39:09;;;;;;;6.90;3.00;;;;;;;12.88;56.85;100596.58;109754;1273;22954;-82
2023/06/13 05:45:59;;;;;;;5.70;2.70;;;;;;;12.76;57.21;100590.10;108888;1284;21996;-81
2023/06/13 05:49:03;;;;;;;3.50;2.70;;;;;;;12.75;57.50;100591.54;108950;1283;22032;-81
2023/06/13 05:51:53;;;;;;;5.20;2.50;;;;;;;12.81;57.60;100593.55;108983;1283;22238;-79
2023/06/13 05:54:38;;;;;;;4.70;2.90;;;;;;;12.85;57.70;100593.38;109212;1275;23062;-80
2023/06/13 05:57:08;;;;;;;3.50;3.00;;;;;;;12.93;57.61;100593.58;109636;1275;22104;-80
2023/06/13 05:59:39;;;;;;;4.50;3.20;;;;;;;12.99;57.52;100588.40;109095;1279;24342;-81
2023/06/13 06:02:11;;;;;;;5.90;3.50;;;;;;;13.04;57.43;100586.07;109234;1279;23699;-80
2023/06/13 06:04:50;;;;;;;5.30;2.80;;;;;;;13.08;57.25;100588.19;109318;1276;23762;-78
2023/06/13 06:07:22;;;;;;;3.80;3.40;;;;;;;13.07;57.17;100589.60;109308;1275;23137;-81
2023/06/13 06:10:24;;;;;;;5.40;3.10;;;;;;;13.10;57.45;100591.08;109756;1270;23708;-79
2023/06/13 06:13:04;;;;;;;7.50;3.20;;;;;;;13.17;57.54;100589.54;110095;1270;23720;-82
2023/06/13 06:15:42;;;;;;;5.30;2.80;;;;;;;13.18;57.20;100587.02;109655;1271;22727;-82
2023/06/13 06:18:20;;;;;;;3.70;2.70;;;;;;;13.19;57.27;100588.55;110140;1267;21972;-85
2023/06/13 06:21:01;;;;;;;6.00;4.30;;;;;;;13.20;57.28;100593.77;110492;1267;21970;-82
2023/06/13 06:23:42;;;;;;;5.80;3.10;;;;;;;13.22;57.51;100594.71;111136;1259;22712;-82
2023/06/13 06:26:14;;;;;;;4.50;3.10;;;;;;;13.29;57.77;100589.90;111239;1259;22648;-82
2023/06/13 06:28:45;;;;;;;3.50;2.40;;;;;;;13.36;57.76;100587.61;111301;1259;22824;-82
2023/06/13 06:31:16;;;;;;;6.20;3.20;;;;;;;13.41;57.54;100589.19;111175;1259;21984;-81
2023/06/13 06:33:46;;;;;;;5.80;3.00;;;;;;;13.43;57.44;100586.98;111069;1259;21959;-81
2023/06/13 06:36:23;;;;;;;4.70;2.70;;;;;;;13.45;57.57;100588.64;110904;1259;23584;-81
2023/06/13 06:38:53;;;;;;;6.30;2.60;;;;;;;13.53;57.38;100583.59;110338;1264;21977;-81
2023/06/13 06:41:24;;;;;;;3.70;3.10;;;;;;;13.57;57.03;100579.01;110835;1264;21948;-82
2023/06/13 06:43:58;;;;;;;4.90;3.10;;;;;;;13.58;57.08;100581.06;110726;1264;22016;-83
2023/06/13 06:46:31;;;;;;;5.90;3.00;;;;;;;13.62;56.94;100582.27;110729;1264;22303;-80
2023/06/13 06:49:04;;;;;;;7.20;2.80;;;;;;;13.64;56.87;100582.16;110840;1264;24216;-78
2023/06/13 06:51:35;;;;;;;9.70;2.90;;;;;;;13.64;56.67;100583.03;110637;1264;22528;-77
2023/06/13 06:54:10;;;;;;;3.20;2.50;;;;;;;13.63;56.81;100591.63;109964;1269;23068;-80
2023/06/13 06:56:44;;;;;;;4.00;2.90;;;;;;;13.63;56.80;100592.53;110068;1265;23040;-80
2023/06/13 06:59:15;;;;;;;4.20;2.90;;;;;;;13.68;56.94;100593.38;110505;1265;23580;-81
2023/06/13 07:01:44;;;;;;;4.00;2.20;;;;;;;13.69;56.39;100600.30;110427;1265;23030;-80
2023/06/13 07:04:14;;;;;;;4.40;2.10;;;;;;;13.60;56.02;100597.91;110491;1265;21977;-81
2023/06/13 07:06:44;;;;;;;3.80;2.50;;;;;;;13.39;55.68;100594.30;110292;1265;21982;-80
2023/06/13 07:09:14;;;;;;;3.30;2.50;;;;;;;13.22;56.04;100591.41;110436;1265;22074;-80
2023/06/13 07:11:44;;;;;;;3.80;2.30;;;;;;;13.12;56.32;100594.31;110336;1259;24530;-79
2023/06/13 07:14:18;;;;;;;7.80;2.70;;;;;;;13.00;56.46;100599.19;110312;1264;22397;-79
2023/06/13 07:16:54;;;;;;;4.40;2.70;;;;;;;12.91;56.96;100596.10;110410;1264;23035;-80
2023/06/13 07:19:30;;;;;;;4.30;2.40;;;;;;;12.96;57.59;100593.45;109666;1269;21996;-79
2023/06/13 07:22:04;;;;;;;4.60;2.50;;;;;;;13.08;58.03;100587.84;109514;1270;22089;-78
2023/06/13 07:24:35;;;;;;;3.10;2.40;;;;;;;13.16;58.08;100590.24;109941;1270;21970;-79
2023/06/13 07:27:08;;;;;;;2.90;2.30;;;;;;;13.18;57.71;100592.26;109694;1270;23593;-80
2023/06/13 07:29:38;;;;;;;2.80;2.20;;;;;;;13.18;57.56;100592.96;109855;1269;22108;-78
2023/06/13 07:32:14;;;;;;;3.60;2.40;;;;;;;13.18;57.61;100589.14;110138;1265;23936;-80
2023/06/13 07:34:44;;;;;;;4.10;2.50;;;;;;;13.21;57.82;100582.71;109673;1270;23017;-80
2023/06/13 07:37:34;;;;;;;4.60;2.70;;;;;;;13.25;57.54;100583.02;110054;1270;22372;-79
2023/06/13 07:40:08;;;;;;;3.50;2.50;;;;;;;13.22;57.24;100580.21;109863;1270;21964;-79
2023/06/13 07:42:45;;;;;;;4.30;2.80;;;;;;;13.17;56.81;100583.23;109779;1270;23042;-79
2023/06/13 07:45:18;;;;;;;5.20;2.60;;;;;;;13.09;56.80;100583.27;110313;1265;23227;-80
2023/06/13 07:48:35;;;;;;;4.20;2.60;;;;;;;13.09;57.18;100584.45;110410;1265;21979;-78
2023/06/13 07:51:10;;;;;;;6.30;2.60;;;;;;;13.14;57.24;100585.63;109369;1268;21969;-80
2023/06/13 07:53:51;;;;;;;3.90;2.30;;;;;;;13.21;57.00;100584.81;110208;1267;21967;-79
2023/06/13 07:56:32;;;;;;;3.60;2.90;;;;;;;13.23;56.86;100576.86;110487;1267;22208;-81
2023/06/13 07:59:07;;;;;;;3.00;2.70;;;;;;;13.20;56.68;100572.77;110132;1265;22016;-81
2023/06/13 08:01:37;;;;;;;6.00;3.10;;;;;;;13.18;56.65;100570.13;109667;1272;21998;-81
2023/06/13 08:04:19;;;;;;;7.30;3.50;;;;;;;13.13;56.62;100577.48;109578;1272;21980;-80
2023/06/13 08:06:50;;;;;;;3.10;2.80;;;;;;;13.06;56.76;100577.27;109320;1276;23641;-79
2023/06/13 08:09:23;;;;;;;3.60;3.30;;;;;;;13.06;57.09;100578.14;109118;1280;22574;-81
2023/06/13 08:11:53;;;;;;;5.60;2.80;;;;;;;13.09;57.32;100578.34;109091;1279;21988;-79
2023/06/13 08:14:27;;;;;;;3.90;3.10;;;;;;;13.14;57.42;100580.93;109078;1280;23836;-81
2023/06/13 08:17:10;;;;;;;4.30;2.80;;;;;;;13.15;57.38;100581.58;109115;1279;22763;-82
2023/06/13 08:19:42;;;;;;;3.80;2.70;;;;;;;13.16;57.27;100583.81;108963;1277;22002;-81
2023/06/13 08:22:16;;;;;;;7.00;3.20;;;;;;;13.18;57.35;100588.27;109181;1277;22270;-81
2023/06/13 08:24:54;;;;;;;3.00;2.50;;;;;;;13.21;57.51;100582.50;109446;1271;22900;-83
2023/06/13 08:27:43;;;;;;;3.70;2.50;;;;;;;13.28;57.75;100585.89;110096;1258;22715;-84
2023/06/13 08:30:31;;;;;;;4.90;3.10;;;;;;;13.40;58.16;100582.58;111117;1258;22056;-82
2023/06/13 08:33:14;;;;;;;5.20;3.10;;;;;;;13.56;58.08;100580.61;111138;1258;23687;-81
2023/06/13 08:36:15;;;;;;;4.60;3.30;;;;;;;13.67;57.66;100584.98;111258;1258;22007;-81
2023/06/13 08:39:06;;;;;;;4.40;3.10;;;;;;;13.68;57.52;100582.67;111126;1259;22002;-81
2023/06/13 08:41:46;;;;;;;5.20;3.60;;;;;;;13.75;57.85;100580.61;111058;1259;21965;-81
2023/06/13 08:44:30;;;;;;;11.20;5.20;;;;;;;13.87;58.09;100578.29;107238;1259;5286835;-84
2023/06/13 08:47:09;;;;;;;7.90;3.60;;;;;;;14.13;58.50;100577.23;111141;1257;22495;-83
2023/06/13 08:50:12;;;;;;;4.20;3.80;;;;;;;14.46;58.52;100576.99;111090;1259;22728;-84
2023/06/13 08:52:47;;;;;;;4.80;3.50;;;;;;;14.85;58.28;100579.73;111178;1259;22025;-80
2023/06/13 08:55:24;;;;;;;4.50;3.20;;;;;;;15.29;57.62;100578.64;111232;1247;22029;-83
2023/06/13 08:58:20;;;;;;;4.40;3.40;;;;;;;15.75;56.04;100576.53;111113;1259;23587;-83
2023/06/13 09:00:53;;;;;;;3.80;3.00;;;;;;;16.02;54.35;100578.89;110842;1265;22961;-82
2023/06/13 09:03:28;;;;;;;4.90;3.10;;;;;;;16.19;53.02;100577.91;110885;1265;21964;-81
2023/06/13 09:06:04;;;;;;;3.10;2.60;;;;;;;16.28;52.28;100580.16;109945;1270;23696;-82
2023/06/13 09:08:43;;;;;;;3.10;2.80;;;;;;;16.46;52.08;100573.16;109788;1268;22985;-82
2023/06/13 09:11:31;;;;;;;4.30;3.10;;;;;;;16.84;51.81;100568.51;109535;1269;22007;-82
2023/06/13 09:14:06;;;;;;;4.20;2.60;;;;;;;17.46;51.63;100564.52;109721;1273;23088;-83
2023/06/13 09:16:37;;;;;;;2.60;2.40;;;;;;;18.15;50.32;100563.91;109692;1274;22018;-83
2023/06/13 09:19:17;;;;;;;3.60;2.60;;;;;;;18.77;48.38;100559.81;109797;1273;21817;-81
2023/06/13 09:23:09;;;;;;;5.70;3.10;;;;;;;19.32;47.30;100562.15;109701;1273;21977;-86
2023/06/13 09:27:01;;;;;;;10.00;5.00;;;;;;;19.67;44.99;100563.70;111090;1257;22018;-83
2023/06/13 09:29:35;;;;;;;6.90;3.30;;;;;;;19.83;44.19;100556.61;110942;1259;21970;-85
2023/06/13 09:32:11;;;;;;;7.00;3.70;;;;;;;20.09;44.17;100547.23;110620;1265;21965;-85
2023/06/13 09:34:47;;;;;;;5.00;3.30;;;;;;;20.37;43.07;100543.75;110632;1265;22184;-84
2023/06/13 09:37:24;;;;;;;3.90;2.80;;;;;;;20.63;42.75;100542.50;110583;1265;21985;-84
2023/06/13 09:40:08;;;;;;;4.70;3.40;;;;;;;20.81;41.76;100543.20;110699;1264;22031;-86
2023/06/13 09:42:49;;;;;;;2.90;2.40;;;;;;;20.78;41.05;100539.77;110524;1264;22460;-85
2023/06/13 09:45:54;;;;;;;2.90;2.40;;;;;;;20.64;40.75;100533.59;110720;1264;21967;-84
2023/06/13 09:48:28;;;;;;;4.90;2.80;;;;;;;20.36;40.66;100535.71;110488;1265;21990;-84
2023/06/13 09:51:04;;;;;;;6.30;2.40;;;;;;;19.98;40.76;100537.30;110960;1258;22047;-86
2023/06/13 09:53:35;;;;;;;3.20;2.10;;;;;;;19.55;41.33;100537.42;110669;1264;21982;-85
2023/06/13 09:56:44;;;;;;;;;;;;;;;;;;;;;
2023/06/13 09:59:37;;;;;;;3.00;2.40;;;;;;;18.88;42.79;100534.21;110586;1266;21987;-83
2023/06/13 10:02:10;;;;;;;2.80;2.20;;;;;;;18.72;42.98;100536.35;110490;1266;21970;-81
2023/06/13 10:04:43;;;;;;;5.10;3.40;;;;;;;18.52;43.16;100534.73;110634;1266;22712;-85
2023/06/13 10:07:13;;;;;;;;;;;;;;;18.30;43.51;100529.13;110358;1266;21972;-85
2023/06/13 10:09:46;;;;;;;4.90;2.80;;;;;;;18.01;44.04;100528.45;110730;1266;23695;-86
2023/06/13 10:12:25;;;;;;;4.70;2.60;;;;;;;17.88;44.46;100523.66;110831;1260;21988;-84
2023/06/13 10:15:01;;;;;;;5.50;2.50;;;;;;;17.75;44.54;100524.09;110909;1259;21990;-84
2023/06/13 10:17:38;;;;;;;2.40;1.90;;;;;;;17.69;44.95;100525.94;110959;1264;23589;-87
2023/06/13 10:20:15;;;;;;;5.00;1.80;;;;;;;17.64;44.80;100520.95;110666;1259;23583;-84
2023/06/13 10:22:47;;;;;;;5.80;2.20;;;;;;;17.53;44.63;100521.65;110649;1259;21977;-84
2023/06/13 10:25:23;;;;;;;3.80;2.10;;;;;;;17.38;44.74;100522.41;110706;1263;23659;-86
2023/06/13 10:28:27;;;;;;;9.30;2.40;;;;;;;17.22;45.02;100521.68;110782;1264;22014;-85
2023/06/13 10:31:17;;;;;;;3.40;2.00;;;;;;;17.11;45.26;100520.28;110577;1264;22444;-80
2023/06/13 10:34:11;;;;;;;7.00;2.80;;;;;;;16.96;45.42;100512.23;110905;1263;21993;-83
2023/06/13 10:37:23;;;;;;;3.70;1.70;;;;;;;16.90;45.65;100514.02;111071;1263;21969;-83
2023/06/13 10:40:37;;;;;;;2.60;1.70;;;;;;;16.78;45.50;100505.20;110175;1270;22005;-80
2023/06/13 10:43:24;;;;;;;8.20;2.70;;;;;;;16.69;45.75;100508.58;109971;1270;21939;-82
2023/06/13 10:46:17;;;;;;;3.10;2.00;;;;;;;16.65;45.89;100510.96;110012;1270;21984;-82
2023/06/13 10:48:53;;;;;;;;;;;;;;;16.61;46.07;100509.27;109654;1272;21989;-82
2023/06/13 10:51:27;;;;;;;2.50;2.10;;;;;;;16.52;46.34;100511.02;109567;1272;23790;-80
2023/06/13 10:54:13;;;;;;;10.00;2.30;;;;;;;16.53;46.33;100507.96;109548;1272;21914;-80
2023/06/13 10:56:59;;;;;;;4.50;2.00;;;;;;;16.60;46.43;100505.39;109535;1272;21976;-81
2023/06/13 10:59:36;;;;;;;2.90;1.90;;;;;;;16.74;46.58;100506.50;110598;1266;21943;-81
2023/06/13 11:02:19;;;;;;;4.80;2.10;;;;;;;16.81;46.05;100507.64;110285;1262;22270;-81
2023/06/13 11:04:55;;;;;;;4.40;2.20;;;;;;;16.78;45.97;100503.81;110208;1265;22073;-79
2023/06/13 11:07:28;;;;;;;5.20;1.80;;;;;;;16.77;46.31;100504.54;110234;1266;23714;-80
2023/06/13 11:10:10;;;;;;;4.50;2.80;;;;;;;16.83;46.28;100506.86;110300;1266;21972;-79
2023/06/13 11:12:50;;;;;;;5.90;3.80;;;;;;;16.88;46.18;100509.74;110177;1265;21973;-79
2023/06/13 11:15:28;;;;;;;8.20;4.30;;;;;;;16.89;46.16;100505.29;110370;1265;21982;-79
2023/06/13 11:18:09;;;;;;;5.30;2.60;;;;;;;16.87;46.22;100509.09;110546;1265;22737;-78
2023/06/13 11:20:57;;;;;;;2.80;2.10;;;;;;;16.85;46.28;100502.88;110467;1266;23801;-79
2023/06/13 11:23:32;;;;;;;3.50;2.60;;;;;;;16.87;46.33;100501.73;109882;1270;21974;-78
2023/06/13 11:26:03;;;;;;;4.30;2.30;;;;;;;16.82;46.10;100499.39;110425;1264;22093;-79
2023/06/13 11:28:34;;;;;;;3.70;1.80;;;;;;;16.81;46.43;100499.80;110462;1264;21975;-78
2023/06/13 11:31:05;;;;;;;3.50;2.30;;;;;;;16.83;46.42;100498.79;110706;1264;21965;-78
2023/06/13 11:33:43;;;;;;;3.50;2.30;;;;;;;16.83;46.50;100497.36;110322;1264;21965;-79
2023/06/13 11:36:15;;;;;;;5.00;3.70;;;;;;;16.84;46.41;100496.46;110272;1264;23049;-80
2023/06/13 11:39:03;;;;;;;2.90;2.00;;;;;;;16.82;46.42;100495.48;110312;1265;21970;-79
2023/06/13 11:41:36;;;;;;;4.40;1.80;;;;;;;16.87;46.80;100496.24;110657;1259;21963;-81
2023/06/13 11:44:13;;;;;;;3.20;2.40;;;;;;;16.90;46.43;100498.52;110912;1259;21956;-79
2023/06/13 11:46:46;;;;;;;4.90;2.50;;;;;;;16.93;46.50;100499.23;110992;1259;23602;-81
2023/06/13 11:49:19;;;;;;;3.80;1.90;;;;;;;16.90;46.47;100498.50;110715;1259;21961;-79
2023/06/13 11:51:53;;;;;;;2.10;1.90;;;;;;;16.82;46.48;100493.72;110910;1259;21972;-79
2023/06/13 11:54:32;;;;;;;2.60;1.90;;;;;;;16.81;46.80;100496.10;110998;1259;22204;-79
2023/06/13 11:57:09;;;;;;;2.50;2.20;;;;;;;16.80;46.78;100496.30;110723;1260;21971;-78
2023/06/13 11:59:43;;;;;;;3.00;2.10;;;;;;;16.79;46.76;100492.16;110696;1263;21996;-79
2023/06/13 12:02:15;;;;;;;4.50;2.30;;;;;;;16.75;46.90;100494.13;110390;1265;22959;-79
2023/06/13 12:04:45;;;;;;;2.80;1.90;;;;;;;16.72;46.91;100491.31;109593;1270;21971;-78
2023/06/13 12:07:20;;;;;;;5.10;2.10;;;;;;;16.70;47.22;100489.54;109575;1270;22152;-78
2023/06/13 12:09:52;;;;;;;5.80;3.80;;;;;;;16.70;47.45;100486.71;109304;1274;22329;-79
2023/06/13 12:12:22;;;;;;;6.70;3.00;;;;;;;16.75;47.64;100486.92;109225;1271;21990;-78
2023/06/13 12:14:54;;;;;;;2.30;2.00;;;;;;;16.80;47.58;100490.17;109831;1270;22846;-79
2023/06/13 12:18:00;;;;;;;3.00;2.30;;;;;;;16.82;47.50;100490.59;109835;1270;21981;-77
2023/06/13 12:20:30;;;;;;;3.10;2.20;;;;;;;16.76;47.61;100491.42;109178;1276;21985;-78
2023/06/13 12:23:01;;;;;;;3.10;1.90;;;;;;;16.84;47.99;100488.87;109190;1271;22003;-78
2023/06/13 12:25:35;;;;;;;3.30;1.70;;;;;;;16.95;47.76;100486.98;109566;1271;22848;-78